Time;durP1;ratioP1;P1;durP2;ratioP2;P2;SDS_P1;SDS_P2;PMS_P1;PMS_P2;Temp;Humidity;BMP_temperature;BMP_pressure;BME280_temperature;BME280_humidity;BME280_pressure;Samples;Min_cycle;Max_cycle;Signal;HPM_P1;HPM_P2
2024/04/16 00:02:01;;;;;;;11.30;1.90;;;6.10;99.90;;;;;;5418348;26;20002;-68
2024/04/16 00:04:26;;;;;;;4.35;1.15;;;6.10;99.90;;;;;;5457234;26;20066;-71
2024/04/16 00:06:52;;;;;;;8.75;1.38;;;6.00;99.90;;;;;;5460105;26;20006;-69
2024/04/16 00:09:18;;;;;;;5.03;1.58;;;6.00;99.90;;;;;;5406035;26;19999;-69
2024/04/16 00:11:43;;;;;;;9.88;1.65;;;6.00;99.90;;;;;;5428680;26;20443;-68
2024/04/16 00:14:09;;;;;;;11.68;2.38;;;5.90;99.90;;;;;;5457156;26;20024;-68
2024/04/16 00:16:34;;;;;;;8.75;1.60;;;5.90;99.90;;;;;;5411675;26;20006;-71
2024/04/16 00:19:00;;;;;;;10.35;1.30;;;5.90;99.90;;;;;;5395501;26;20009;-70
2024/04/16 00:21:26;;;;;;;9.30;1.50;;;6.10;99.90;;;;;;5373367;26;20006;-68
2024/04/16 00:23:51;;;;;;;9.57;1.48;;;6.20;99.90;;;;;;5446594;26;19998;-70
2024/04/16 00:26:17;;;;;;;14.93;2.10;;;6.30;99.90;;;;;;5387451;26;20006;-68
2024/04/16 00:28:43;;;;;;;11.50;1.30;;;6.30;99.90;;;;;;5452756;26;20003;-69
2024/04/16 00:31:09;;;;;;;13.50;1.90;;;6.40;99.90;;;;;;5393778;26;20014;-70
2024/04/16 00:33:34;;;;;;;9.02;1.63;;;6.40;99.90;;;;;;5379762;26;20019;-73
2024/04/16 00:36:00;;;;;;;11.88;1.90;;;6.50;99.90;;;;;;5456330;26;20006;-71
2024/04/16 00:38:26;;;;;;;11.93;1.95;;;6.60;99.90;;;;;;5476020;26;20006;-69
2024/04/16 00:40:51;;;;;;;13.32;2.00;;;6.60;99.90;;;;;;5448344;26;20013;-69
2024/04/16 00:43:22;;;;;;;9.55;1.73;;;6.60;99.90;;;;;;5380347;26;19998;-69
2024/04/16 00:45:55;;;;;;;13.70;3.30;;;6.60;99.90;;;;;;5445828;26;20052;-71
2024/04/16 00:48:25;;;;;;;16.73;1.75;;;6.70;99.90;;;;;;5456037;26;19998;-70
2024/04/16 00:50:51;;;;;;;16.65;3.00;;;6.70;99.90;;;;;;5443636;26;20007;-70
2024/04/16 00:53:18;;;;;;;12.70;2.13;;;6.80;99.90;;;;;;5483656;26;20032;-70
2024/04/16 00:55:46;;;;;;;9.35;1.90;;;6.80;99.90;;;;;;5441605;26;19994;-71
2024/04/16 00:58:15;;;;;;;9.93;1.75;;;6.70;99.90;;;;;;5427297;26;20380;-70
2024/04/16 01:00:41;;;;;;;12.25;2.42;;;6.70;99.90;;;;;;5402659;26;20037;-71
2024/04/16 01:03:07;;;;;;;11.43;2.13;;;6.70;99.90;;;;;;5449229;26;20361;-69
2024/04/16 01:05:33;;;;;;;9.63;2.13;;;6.80;99.90;;;;;;5487683;26;20006;-70
2024/04/16 01:08:00;;;;;;;7.07;1.42;;;6.90;99.90;;;;;;5476615;26;20004;-69
2024/04/16 01:10:26;;;;;;;9.00;1.55;;;6.90;99.90;;;;;;5459064;26;19995;-69
2024/04/16 01:12:52;;;;;;;14.25;2.50;;;6.90;99.90;;;;;;5397053;26;20347;-68
2024/04/16 01:15:17;;;;;;;13.10;2.45;;;7.00;99.90;;;;;;5464056;26;20003;-70
2024/04/16 01:17:43;;;;;;;10.15;1.67;;;7.00;99.90;;;;;;5397796;26;20473;-70
2024/04/16 01:20:09;;;;;;;9.52;1.88;;;7.10;99.90;;;;;;5424050;26;20002;-70
2024/04/16 01:22:35;;;;;;;8.20;2.03;;;7.10;99.90;;;;;;5433184;26;20003;-71
2024/04/16 01:25:01;;;;;;;8.52;2.05;;;7.10;99.90;;;;;;5428470;26;20402;-69
2024/04/16 01:27:26;;;;;;;18.42;2.45;;;7.10;99.90;;;;;;5448344;26;20024;-70
2024/04/16 01:29:52;;;;;;;10.95;2.17;;;7.20;99.90;;;;;;5454196;26;20006;-70
2024/04/16 01:32:18;;;;;;;13.15;1.90;;;7.30;99.90;;;;;;5395868;26;19999;-70
2024/04/16 01:34:44;;;;;;;15.57;2.28;;;7.40;99.90;;;;;;5448593;26;20030;-69
2024/04/16 01:37:09;;;;;;;9.55;2.13;;;7.50;99.90;;;;;;5428735;26;20339;-70
2024/04/16 01:39:35;;;;;;;15.90;2.33;;;7.50;99.90;;;;;;5422860;26;19999;-69
2024/04/16 01:42:01;;;;;;;13.65;1.80;;;7.60;99.90;;;;;;5381134;26;20014;-69
2024/04/16 01:44:26;;;;;;;17.33;2.03;;;7.70;99.90;;;;;;5383860;26;20000;-71
2024/04/16 01:46:52;;;;;;;15.40;2.05;;;7.70;99.90;;;;;;5407268;26;19995;-69
2024/04/16 01:49:19;;;;;;;14.75;2.15;;;7.70;99.90;;;;;;5430339;26;20338;-69
2024/04/16 01:51:44;;;;;;;12.52;2.08;;;7.60;99.90;;;;;;5401328;26;20003;-70
2024/04/16 01:54:10;;;;;;;13.65;2.30;;;7.80;99.90;;;;;;5411132;26;20328;-71
2024/04/16 01:56:35;;;;;;;17.77;2.22;;;7.80;99.90;;;;;;5382323;26;20359;-70
2024/04/16 01:59:02;;;;;;;14.68;2.53;;;7.80;99.90;;;;;;5426371;26;20007;-69
2024/04/16 02:01:27;;;;;;;9.73;1.98;;;7.80;99.90;;;;;;5406684;26;20032;-69
2024/04/16 02:03:53;;;;;;;12.85;1.92;;;7.70;99.90;;;;;;5399372;26;20002;-70
2024/04/16 02:06:19;;;;;;;15.98;2.17;;;7.60;99.90;;;;;;5427076;26;20374;-70
2024/04/16 02:08:44;;;;;;;16.15;2.20;;;7.50;99.90;;;;;;5394380;26;20010;-68
2024/04/16 02:11:10;;;;;;;19.38;2.95;;;7.50;99.90;;;;;;5395161;26;20067;-68
2024/04/16 02:13:36;;;;;;;17.17;2.53;;;7.50;99.90;;;;;;5369218;26;20054;-72
2024/04/16 02:16:02;;;;;;;14.88;2.80;;;7.40;99.90;;;;;;5370741;26;20010;-69
2024/04/16 02:18:27;;;;;;;10.70;2.63;;;7.40;99.90;;;;;;5442634;26;19996;-68
2024/04/16 02:20:53;;;;;;;16.38;2.55;;;7.30;99.90;;;;;;5449673;26;20003;-68
2024/04/16 02:23:18;;;;;;;16.40;2.72;;;7.30;99.90;;;;;;5385975;26;20012;-69
2024/04/16 02:25:48;;;;;;;13.70;1.90;;;7.40;99.90;;;;;;5401556;26;20003;-67
2024/04/16 02:28:14;;;;;;;15.23;2.15;;;7.30;99.90;;;;;;5440910;26;20389;-68
2024/04/16 02:30:41;;;;;;;9.30;2.00;;;7.40;99.90;;;;;;5403707;26;19999;-68
2024/04/16 02:33:09;;;;;;;14.90;3.08;;;7.50;99.90;;;;;;5389271;26;19996;-69
2024/04/16 02:35:35;;;;;;;16.73;2.15;;;7.70;99.90;;;;;;5409946;26;20003;-70
2024/04/16 02:38:01;;;;;;;10.25;1.95;;;7.80;99.90;;;;;;5436985;26;20018;-69
2024/04/16 02:40:26;;;;;;;11.20;2.85;;;7.90;99.90;;;;;;5420412;26;20453;-71
2024/04/16 02:42:52;;;;;;;16.30;3.35;;;7.80;99.90;;;;;;5424947;26;20006;-68
2024/04/16 02:45:17;;;;;;;12.73;2.05;;;7.80;99.90;;;;;;5441116;26;20078;-70
2024/04/16 02:47:43;;;;;;;10.63;1.92;;;7.90;99.90;;;;;;5446013;26;20006;-70
2024/04/16 02:50:09;;;;;;;7.22;2.38;;;7.80;99.90;;;;;;5447061;26;20328;-68
2024/04/16 02:52:36;;;;;;;8.73;1.77;;;7.60;99.90;;;;;;5487486;26;20018;-71
2024/04/16 02:55:06;;;;;;;9.70;1.60;;;7.50;99.90;;;;;;5437089;26;19999;-68
2024/04/16 02:57:33;;;;;;;8.65;1.80;;;7.10;99.90;;;;;;5432650;26;20320;-71
2024/04/16 03:00:02;;;;;;;6.90;1.75;;;6.90;99.90;;;;;;5425317;26;19998;-69
2024/04/16 03:02:27;;;;;;;13.45;2.25;;;6.80;99.90;;;;;;5450532;26;20009;-70
2024/04/16 03:04:53;;;;;;;12.48;1.98;;;6.70;99.90;;;;;;5488776;26;19998;-71
2024/04/16 03:07:19;;;;;;;10.80;2.15;;;6.70;99.90;;;;;;5414193;26;20396;-71
2024/04/16 03:09:44;;;;;;;10.82;1.88;;;6.70;99.90;;;;;;5438449;26;20026;-68
2024/04/16 03:12:10;;;;;;;11.10;2.08;;;6.70;99.90;;;;;;5421910;26;20323;-70
2024/04/16 03:14:36;;;;;;;14.38;2.20;;;6.70;99.90;;;;;;5385840;26;19998;-70
2024/04/16 03:17:04;;;;;;;10.52;2.30;;;6.70;99.90;;;;;;5477598;26;19999;-74
2024/04/16 03:19:29;;;;;;;8.55;1.75;;;6.80;99.90;;;;;;5437318;26;19995;-72
2024/04/16 03:21:55;;;;;;;16.05;2.20;;;6.90;99.90;;;;;;5449365;26;20003;-70
2024/04/16 03:24:21;;;;;;;12.07;2.22;;;6.80;99.90;;;;;;5493965;26;19990;-69
2024/04/16 03:26:46;;;;;;;11.00;2.15;;;6.80;99.90;;;;;;5428362;26;20018;-69
2024/04/16 03:29:12;;;;;;;10.40;1.90;;;6.90;99.90;;;;;;5455612;26;20006;-70
2024/04/16 03:31:38;;;;;;;9.18;2.80;;;6.80;99.90;;;;;;5451633;26;20033;-71
2024/04/16 03:34:03;;;;;;;14.45;2.33;;;6.70;99.90;;;;;;5455482;26;20040;-69
2024/04/16 03:36:29;;;;;;;8.70;2.25;;;6.80;99.90;;;;;;5429104;26;20029;-71
2024/04/16 03:38:55;;;;;;;10.57;1.70;;;6.80;99.90;;;;;;5492163;26;20002;-70
2024/04/16 03:41:24;;;;;;;16.10;2.80;;;6.80;99.90;;;;;;5413943;26;20009;-71
2024/04/16 03:43:50;;;;;;;12.25;2.15;;;6.80;99.90;;;;;;5451957;26;20013;-71
2024/04/16 03:46:16;;;;;;;8.88;2.00;;;6.80;99.90;;;;;;5462914;26;19990;-69
2024/04/16 03:48:41;;;;;;;10.00;2.80;;;6.70;99.90;;;;;;5451163;26;20006;-71
2024/04/16 03:51:07;;;;;;;12.93;2.20;;;6.60;99.90;;;;;;5467246;26;20018;-70
2024/04/16 03:53:33;;;;;;;11.82;2.03;;;6.60;99.90;;;;;;5445650;26;20308;-69
2024/04/16 03:56:00;;;;;;;17.55;2.72;;;6.60;99.90;;;;;;5427297;26;20451;-69
2024/04/16 03:58:29;;;;;;;15.50;2.45;;;6.70;99.90;;;;;;5456252;26;20030;-68
2024/04/16 04:01:03;;;;;;;18.08;2.47;;;6.80;99.90;;;;;;5472151;26;20007;-68
2024/04/16 04:03:32;;;;;;;12.88;1.95;;;6.80;99.90;;;;;;5432466;26;19998;-68
2024/04/16 04:05:58;;;;;;;16.70;2.80;;;6.90;99.90;;;;;;5436436;26;20025;-69
2024/04/16 04:08:24;;;;;;;12.20;2.00;;;6.90;99.90;;;;;;5418460;26;19995;-69
2024/04/16 04:10:50;;;;;;;11.27;2.17;;;6.90;99.90;;;;;;5427274;26;20005;-69
2024/04/16 04:13:16;;;;;;;12.38;2.33;;;6.90;99.90;;;;;;5421465;26;20058;-69
2024/04/16 04:15:42;;;;;;;13.43;2.22;;;6.90;99.90;;;;;;5393625;26;19998;-69
2024/04/16 04:18:07;;;;;;;14.07;2.58;;;6.90;99.90;;;;;;5446610;26;19998;-69
2024/04/16 04:20:35;;;;;;;16.10;2.90;;;7.00;99.90;;;;;;5453845;26;20014;-70
2024/04/16 04:23:00;;;;;;;15.98;3.15;;;7.00;99.90;;;;;;5457192;26;20009;-70
2024/04/16 04:25:26;;;;;;;16.55;3.72;;;7.00;99.90;;;;;;5456870;26;20003;-70
2024/04/16 04:27:52;;;;;;;11.23;2.05;;;7.10;99.90;;;;;;5428071;26;20010;-71
2024/04/16 04:30:17;;;;;;;10.68;3.42;;;7.00;99.90;;;;;;5476055;26;20071;-70
2024/04/16 04:32:50;;;;;;;9.95;2.15;;;7.00;99.90;;;;;;5434332;26;20006;-69
2024/04/16 04:35:16;;;;;;;10.23;2.08;;;7.10;99.90;;;;;;5425021;26;20838;-70
2024/04/16 04:37:42;;;;;;;12.95;2.50;;;7.10;99.90;;;;;;5483397;26;19998;-70
2024/04/16 04:40:08;;;;;;;8.75;2.80;;;7.10;99.90;;;;;;5443343;26;20048;-70
2024/04/16 04:42:34;;;;;;;10.43;2.38;;;7.20;99.90;;;;;;5453937;26;20439;-69
2024/04/16 04:44:59;;;;;;;8.82;2.05;;;7.20;99.90;;;;;;5432342;26;19998;-69
2024/04/16 04:47:25;;;;;;;12.35;2.50;;;7.20;99.90;;;;;;5404994;26;20006;-68
2024/04/16 04:49:50;;;;;;;15.00;2.42;;;7.20;99.90;;;;;;5480262;26;20002;-68
2024/04/16 04:52:16;;;;;;;18.63;2.38;;;7.10;99.90;;;;;;5445181;26;20397;-69
2024/04/16 04:54:42;;;;;;;8.05;2.03;;;7.10;99.90;;;;;;5439946;26;20457;-68
2024/04/16 04:57:08;;;;;;;10.52;2.70;;;7.10;99.90;;;;;;5416733;26;20450;-68
2024/04/16 04:59:34;;;;;;;15.27;2.47;;;7.10;99.90;;;;;;5472655;26;19994;-68
2024/04/16 05:02:01;;;;;;;13.02;2.22;;;7.10;99.90;;;;;;5415715;26;20452;-68
2024/04/16 05:04:27;;;;;;;12.25;2.38;;;7.10;99.90;;;;;;5489083;26;19994;-71
2024/04/16 05:06:53;;;;;;;10.57;2.53;;;7.10;99.90;;;;;;5402703;26;20013;-69
2024/04/16 05:09:19;;;;;;;8.70;1.88;;;7.10;99.90;;;;;;5444300;26;20010;-73
2024/04/16 05:11:44;;;;;;;12.50;3.00;;;7.00;99.90;;;;;;5481745;26;20309;-71
2024/04/16 05:14:11;;;;;;;13.68;2.85;;;7.00;99.90;;;;;;5454297;26;19998;-69
2024/04/16 05:16:36;;;;;;;16.95;3.50;;;7.00;99.90;;;;;;5441205;26;20446;-69
2024/04/16 05:19:03;;;;;;;8.65;2.65;;;7.00;99.90;;;;;;5421458;26;19999;-68
2024/04/16 05:21:29;;;;;;;11.57;2.83;;;7.00;99.90;;;;;;5461955;26;19994;-69
2024/04/16 05:23:55;;;;;;;10.27;3.50;;;6.90;99.90;;;;;;5481984;26;20006;-68
2024/04/16 05:26:22;;;;;;;11.45;3.78;;;6.90;99.90;;;;;;5409793;26;19999;-68
2024/04/16 05:28:48;;;;;;;22.13;3.70;;;6.90;99.90;;;;;;5483773;26;19998;-73
2024/04/16 05:31:14;;;;;;;16.67;3.33;;;6.90;99.90;;;;;;5441821;26;20465;-70
2024/04/16 05:33:39;;;;;;;11.15;3.30;;;6.90;99.90;;;;;;5436983;26;19995;-69
2024/04/16 05:36:05;;;;;;;9.63;3.25;;;6.90;99.90;;;;;;5469094;26;20006;-72
2024/04/16 05:38:31;;;;;;;9.73;3.20;;;6.90;99.90;;;;;;5442540;26;20007;-71
2024/04/16 05:40:57;;;;;;;11.70;4.25;;;6.90;99.90;;;;;;5437004;26;20009;-71
2024/04/16 05:43:22;;;;;;;12.55;3.13;;;6.90;99.90;;;;;;5479591;26;19999;-71
2024/04/16 05:45:48;;;;;;;8.50;2.88;;;7.00;99.90;;;;;;5393536;26;19998;-70
2024/04/16 05:48:13;;;;;;;10.70;2.35;;;6.90;99.90;;;;;;5446748;26;20013;-70
2024/04/16 05:50:41;;;;;;;6.68;2.45;;;6.90;99.90;;;;;;5419298;26;19995;-68
2024/04/16 05:53:06;;;;;;;16.17;3.08;;;6.90;99.90;;;;;;5456651;26;19998;-69
2024/04/16 05:55:32;;;;;;;9.52;2.90;;;6.90;99.90;;;;;;5438657;26;20031;-68
2024/04/16 05:57:58;;;;;;;14.88;2.92;;;7.00;99.90;;;;;;5449053;26;19994;-69
2024/04/16 06:00:23;;;;;;;11.93;3.38;;;7.10;99.90;;;;;;5434516;26;19991;-69
2024/04/16 06:02:49;;;;;;;14.68;2.70;;;7.20;99.90;;;;;;5421034;26;20005;-68
2024/04/16 06:05:15;;;;;;;13.27;2.97;;;7.20;99.90;;;;;;5449221;26;20002;-68
2024/04/16 06:07:41;;;;;;;9.75;2.70;;;7.20;99.90;;;;;;5413662;26;20013;-69
2024/04/16 06:10:07;;;;;;;14.35;2.47;;;7.20;99.90;;;;;;5394009;26;20013;-69
2024/04/16 06:12:32;;;;;;;9.95;2.70;;;7.30;99.90;;;;;;5397134;26;20035;-70
2024/04/16 06:14:59;;;;;;;13.30;2.13;;;7.30;99.90;;;;;;5433820;26;20074;-69
2024/04/16 06:17:25;;;;;;;16.02;2.55;;;7.20;99.90;;;;;;5431450;26;20566;-70
2024/04/16 06:19:50;;;;;;;10.82;2.45;;;7.30;99.90;;;;;;5474682;26;20002;-69
2024/04/16 06:22:16;;;;;;;12.52;2.70;;;7.30;99.90;;;;;;5433076;26;20006;-69
2024/04/16 06:24:42;;;;;;;13.10;2.75;;;7.30;99.90;;;;;;5489533;26;20011;-68
2024/04/16 06:27:08;;;;;;;14.82;3.00;;;7.40;99.90;;;;;;5424986;26;20011;-70
2024/04/16 06:29:33;;;;;;;12.82;2.60;;;7.40;99.90;;;;;;5418184;26;20450;-69
2024/04/16 06:31:59;;;;;;;16.05;3.25;;;7.50;99.90;;;;;;5395138;26;20040;-70
2024/04/16 06:34:24;;;;;;;18.38;3.35;;;7.50;99.90;;;;;;5419955;26;20463;-70
2024/04/16 06:36:50;;;;;;;17.35;3.20;;;7.40;99.90;;;;;;5491649;26;19998;-70
2024/04/16 06:39:16;;;;;;;19.60;3.42;;;7.40;99.90;;;;;;5459877;26;19998;-69
2024/04/16 06:41:41;;;;;;;18.77;3.28;;;7.50;99.90;;;;;;5456351;26;19999;-69
2024/04/16 06:44:07;;;;;;;18.45;3.20;;;7.60;99.90;;;;;;5423627;26;19999;-70
2024/04/16 06:46:33;;;;;;;13.90;2.42;;;7.70;99.90;;;;;;5415757;26;20003;-70
2024/04/16 06:48:58;;;;;;;18.98;4.03;;;7.70;99.90;;;;;;5393419;26;20011;-70
2024/04/16 06:51:24;;;;;;;10.15;2.45;;;7.80;99.90;;;;;;5427469;26;20212;-71
2024/04/16 06:53:50;;;;;;;13.60;2.63;;;7.80;99.90;;;;;;5444350;26;20356;-70
2024/04/16 06:56:16;;;;;;;26.13;2.70;;;7.90;99.90;;;;;;5457572;26;20014;-70
2024/04/16 06:58:42;;;;;;;14.88;2.33;;;7.90;99.90;;;;;;5434482;26;20454;-69
2024/04/16 07:01:09;;;;;;;17.55;2.90;;;7.90;99.90;;;;;;5457993;26;20016;-70
2024/04/16 07:03:35;;;;;;;18.13;3.00;;;7.90;99.90;;;;;;5490856;26;20006;-71
2024/04/16 07:06:00;;;;;;;19.02;4.40;;;7.90;99.90;;;;;;5464415;26;20078;-70
2024/04/16 07:08:27;;;;;;;18.65;2.72;;;8.00;99.90;;;;;;5443315;26;20086;-72
2024/04/16 07:10:53;;;;;;;15.55;2.55;;;8.00;99.90;;;;;;5418740;26;20013;-68
2024/04/16 07:13:19;;;;;;;21.92;2.15;;;8.00;99.90;;;;;;5472900;26;20005;-70
2024/04/16 07:15:44;;;;;;;15.13;2.90;;;8.00;99.90;;;;;;5416084;26;20003;-68
2024/04/16 07:18:10;;;;;;;17.35;2.20;;;8.00;99.90;;;;;;5410395;26;20003;-69
2024/04/16 07:20:36;;;;;;;11.95;1.95;;;8.00;99.90;;;;;;5426846;26;20002;-68
2024/04/16 07:23:02;;;;;;;18.77;2.75;;;8.00;99.90;;;;;;5412267;26;20009;-69
2024/04/16 07:25:27;;;;;;;15.40;2.50;;;8.00;99.90;;;;;;5402108;26;20351;-69
2024/04/16 07:27:53;;;;;;;22.98;2.97;;;8.10;99.90;;;;;;5473127;26;19999;-68
2024/04/16 07:30:19;;;;;;;10.40;2.60;;;8.10;99.90;;;;;;5369979;26;20003;-68
2024/04/16 07:32:45;;;;;;;8.68;1.88;;;8.10;99.90;;;;;;5473572;26;20013;-69
2024/04/16 07:35:11;;;;;;;11.80;1.60;;;8.20;99.90;;;;;;5425296;26;19998;-68
2024/04/16 07:37:37;;;;;;;20.45;1.70;;;8.30;99.90;;;;;;5458045;26;20348;-68
2024/04/16 07:40:03;;;;;;;16.77;2.40;;;8.30;99.90;;;;;;5446260;26;20020;-70
2024/04/16 07:42:29;;;;;;;12.02;3.65;;;8.40;99.90;;;;;;5441828;26;20002;-70
2024/04/16 07:44:55;;;;;;;16.60;2.95;;;8.60;99.90;;;;;;5438778;26;20002;-70
2024/04/16 07:47:47;;;;;;;7.22;1.90;;;8.60;99.90;;;;;;5539869;25;1210163;-71
2024/04/16 07:50:12;;;;;;;16.90;2.85;;;8.70;99.90;;;;;;5512088;25;20009;-70
2024/04/16 07:52:38;;;;;;;10.88;2.45;;;8.80;99.90;;;;;;5518093;25;20434;-70
2024/04/16 07:55:04;;;;;;;19.90;2.35;;;8.80;99.90;;;;;;5521050;25;20013;-69
2024/04/16 07:57:29;;;;;;;18.05;2.58;;;8.80;99.90;;;;;;5525494;25;19997;-71
2024/04/16 07:59:55;;;;;;;14.00;2.58;;;8.90;99.90;;;;;;5524877;25;20005;-70
2024/04/16 08:02:21;;;;;;;12.82;2.67;;;8.90;99.90;;;;;;5523013;25;20016;-69
2024/04/16 08:04:46;;;;;;;13.63;2.83;;;8.90;99.90;;;;;;5515907;25;20325;-68
2024/04/16 08:07:12;;;;;;;16.85;2.25;;;8.80;99.90;;;;;;5546715;25;20073;-69
2024/04/16 08:09:40;;;;;;;17.80;2.75;;;8.70;99.90;;;;;;5476042;26;20327;-69
2024/04/16 08:12:06;;;;;;;10.73;2.78;;;8.80;99.90;;;;;;5484128;25;20020;-69
2024/04/16 08:14:32;;;;;;;12.68;1.83;;;8.80;99.90;;;;;;5467881;26;20070;-69
2024/04/16 08:16:57;;;;;;;11.88;3.20;;;8.90;99.90;;;;;;5467808;25;20450;-70
2024/04/16 08:19:23;;;;;;;19.75;2.30;;;9.00;99.90;;;;;;5513553;25;20013;-68
2024/04/16 08:21:50;;;;;;;18.63;2.75;;;9.10;99.90;;;;;;5512012;25;20012;-68
2024/04/16 08:24:16;;;;;;;15.02;2.13;;;9.20;99.90;;;;;;5544761;25;20008;-68
2024/04/16 08:26:41;;;;;;;15.30;1.98;;;9.40;99.90;;;;;;5546533;25;19997;-69
2024/04/16 08:29:07;;;;;;;10.32;2.00;;;9.40;99.90;;;;;;5543857;25;20012;-69
2024/04/16 08:31:33;;;;;;;16.02;2.63;;;9.30;99.90;;;;;;5544133;25;20474;-72
2024/04/16 08:34:01;;;;;;;12.25;2.75;;;9.20;99.90;;;;;;5481967;25;20430;-68
2024/04/16 08:36:27;;;;;;;17.25;3.05;;;9.10;99.90;;;;;;5546555;25;19997;-70
2024/04/16 08:38:52;;;;;;;15.38;2.45;;;9.10;99.90;;;;;;5512959;25;20053;-67
2024/04/16 08:41:18;;;;;;;13.82;1.92;;;9.00;99.90;;;;;;5463641;25;20054;-69
2024/04/16 08:43:46;;;;;;;11.25;2.03;;;9.00;99.90;;;;;;5516053;25;19998;-70
2024/04/16 08:46:13;;;;;;;12.50;2.42;;;9.00;99.90;;;;;;5511845;25;20069;-68
2024/04/16 08:48:40;;;;;;;12.25;1.90;;;9.00;99.90;;;;;;5474560;26;20001;-68
2024/04/16 08:51:08;;;;;;;12.38;1.73;;;9.00;99.90;;;;;;5478680;25;20372;-69
2024/04/16 08:53:35;;;;;;;10.13;2.00;;;9.00;99.90;;;;;;5475505;26;20010;-71
2024/04/16 08:56:01;;;;;;;12.07;1.60;;;9.00;99.90;;;;;;5504598;25;20330;-69
2024/04/16 08:58:27;;;;;;;18.13;2.33;;;9.10;99.90;;;;;;5533069;25;20013;-73
2024/04/16 09:00:56;;;;;;;9.65;2.22;;;9.20;99.90;;;;;;5465830;26;20061;-71
2024/04/16 09:03:23;;;;;;;12.30;1.77;;;9.30;99.90;;;;;;5527404;26;20013;-71
2024/04/16 09:05:49;;;;;;;12.27;1.85;;;9.40;99.90;;;;;;5528667;26;20036;-69
2024/04/16 09:08:14;;;;;;;12.13;2.03;;;9.40;99.90;;;;;;5455919;26;20515;-69
2024/04/16 09:10:43;;;;;;;13.98;2.15;;;9.40;99.90;;;;;;5447760;26;20012;-71
2024/04/16 09:13:12;;;;;;;9.80;1.92;;;9.40;99.90;;;;;;5465646;26;20004;-69
2024/04/16 09:15:40;;;;;;;19.15;2.75;;;9.30;99.90;;;;;;5528860;26;20034;-68
2024/04/16 09:18:06;;;;;;;8.65;2.05;;;9.30;99.90;;;;;;5466693;26;20002;-71
2024/04/16 09:20:32;;;;;;;8.90;1.60;;;9.20;99.90;;;;;;5467239;26;20004;-69
2024/04/16 09:22:58;;;;;;;7.00;1.55;;;9.20;99.90;;;;;;5528084;26;20045;-70
2024/04/16 09:25:25;;;;;;;8.95;1.55;;;9.30;99.90;;;;;;5496741;26;19993;-68
2024/04/16 09:27:55;;;;;;;9.35;1.98;;;9.30;99.90;;;;;;5530433;26;19997;-70
2024/04/16 09:30:22;;;;;;;13.25;1.90;;;9.30;99.90;;;;;;5462496;26;20023;-67
2024/04/16 09:32:57;;;;;;;18.98;3.28;;;9.30;99.90;;;;;;5533626;26;19997;-70
2024/04/16 09:35:27;;;;;;;12.23;2.17;;;9.40;99.90;;;;;;5503729;26;20018;-71
2024/04/16 09:38:07;;;;;;;7.10;1.55;;;9.50;99.90;;;;;;5498483;26;19998;-68
2024/04/16 09:40:33;;;;;;;9.00;1.52;;;9.50;99.90;;;;;;5494738;26;20012;-69
2024/04/16 09:43:02;;;;;;;7.03;1.50;;;9.50;99.90;;;;;;5527222;26;20001;-68
2024/04/16 09:45:28;;;;;;;7.78;1.45;;;9.50;99.90;;;;;;5494787;26;20162;-70
2024/04/16 09:47:56;;;;;;;7.85;1.70;;;9.40;99.90;;;;;;5496022;26;20008;-69
2024/04/16 09:50:23;;;;;;;7.85;1.48;;;9.40;99.90;;;;;;5521505;26;20379;-68
2024/04/16 09:52:51;;;;;;;7.40;1.73;;;9.50;99.90;;;;;;5510432;26;20414;-69
2024/04/16 09:55:21;;;;;;;8.52;1.33;;;9.70;99.90;;;;;;5464861;26;20005;-69
2024/04/16 09:57:48;;;;;;;9.00;1.60;;;9.70;99.90;;;;;;5464842;26;20439;-70
2024/04/16 10:00:15;;;;;;;8.50;1.58;;;9.90;99.90;;;;;;5460277;26;20354;-70
2024/04/16 10:02:43;;;;;;;9.77;2.00;;;10.40;99.90;;;;;;5482974;26;20334;-70
2024/04/16 10:05:15;;;;;;;6.65;1.40;;;10.20;99.90;;;;;;5495659;26;20002;-68
2024/04/16 10:07:44;;;;;;;6.60;1.08;;;10.10;99.90;;;;;;5495862;26;20446;-67
2024/04/16 10:10:10;;;;;;;7.47;1.55;;;10.30;99.90;;;;;;5524877;26;19993;-68
2024/04/16 10:12:37;;;;;;;6.60;1.90;;;10.70;99.90;;;;;;5494658;26;20002;-70
2024/04/16 10:15:05;;;;;;;11.05;1.70;;;11.00;99.90;;;;;;5463716;26;20514;-68
2024/04/16 10:17:32;;;;;;;8.20;1.55;;;11.20;99.90;;;;;;5527298;26;20012;-69
2024/04/16 10:19:58;;;;;;;7.90;1.60;;;11.30;99.90;;;;;;5458223;26;20016;-68
2024/04/16 10:22:24;;;;;;;9.10;1.90;;;11.50;99.90;;;;;;5525489;26;20454;-70
2024/04/16 10:24:54;;;;;;;5.60;1.30;;;12.30;99.90;;;;;;5534598;26;20045;-68
2024/04/16 10:27:25;;;;;;;10.00;1.50;;;13.70;99.90;;;;;;5527474;26;19997;-70
2024/04/16 10:30:09;;;;;;;11.90;1.48;;;14.00;99.90;;;;;;5531537;26;20030;-69
2024/04/16 10:32:46;;;;;;;11.13;2.08;;;14.00;99.90;;;;;;5531603;26;20012;-71
2024/04/16 10:35:13;;;;;;;10.57;2.05;;;13.10;99.90;;;;;;5499547;26;20007;-69
2024/04/16 10:37:38;;;;;;;7.35;1.77;;;12.80;99.90;;;;;;5496090;26;20001;-69
2024/04/16 10:40:05;;;;;;;6.32;1.85;;;12.60;99.90;;;;;;5493716;26;20016;-71
2024/04/16 10:42:37;;;;;;;8.43;2.20;;;12.80;99.90;;;;;;5492968;26;20017;-70
2024/04/16 10:45:03;;;;;;;18.27;1.92;;;13.70;99.90;;;;;;5527237;26;20001;-68
2024/04/16 10:47:31;;;;;;;10.85;1.67;;;14.70;99.90;;;;;;5483916;26;20002;-69
2024/04/16 10:49:58;;;;;;;8.93;2.10;;;14.80;99.90;;;;;;5484023;26;20033;-71
2024/04/16 10:52:23;;;;;;;5.65;1.42;;;15.30;99.90;;;;;;5430250;26;19997;-70
2024/04/16 10:54:52;;;;;;;9.13;1.95;;;15.70;99.90;;;;;;5463644;26;20016;-68
2024/04/16 10:57:18;;;;;;;8.32;1.30;;;15.50;99.90;;;;;;5463924;26;20002;-70
2024/04/16 10:59:45;;;;;;;7.45;1.20;;;14.20;99.90;;;;;;5488903;26;20033;-71
2024/04/16 11:02:11;;;;;;;4.57;1.42;;;13.50;99.90;;;;;;5526097;26;19997;-69
2024/04/16 11:04:38;;;;;;;10.55;2.30;;;13.20;99.90;;;;;;5494055;26;20012;-70
2024/04/16 11:07:04;;;;;;;13.57;1.92;;;13.00;99.90;;;;;;5494357;26;19997;-70
2024/04/16 11:09:30;;;;;;;12.43;1.58;;;13.00;99.90;;;;;;5460042;26;20078;-71
2024/04/16 11:11:56;;;;;;;8.98;1.63;;;12.50;99.90;;;;;;5525543;26;19998;-69
2024/04/16 11:14:23;;;;;;;6.97;1.60;;;12.10;99.90;;;;;;5493455;26;20001;-70
2024/04/16 11:16:49;;;;;;;8.10;1.50;;;11.70;99.90;;;;;;5494100;26;20236;-71
2024/04/16 11:19:17;;;;;;;9.40;1.33;;;11.70;99.90;;;;;;5493015;26;19997;-70
2024/04/16 11:21:45;;;;;;;5.78;1.30;;;12.40;99.90;;;;;;5492131;26;20001;-69
2024/04/16 11:24:13;;;;;;;7.97;1.65;;;12.20;99.90;;;;;;5525175;26;20001;-70
2024/04/16 11:26:39;;;;;;;7.65;2.05;;;12.10;99.90;;;;;;5494105;26;20355;-70
2024/04/16 11:29:05;;;;;;;5.90;1.13;;;11.70;99.90;;;;;;5492117;26;20132;-72
2024/04/16 11:31:30;;;;;;;5.07;1.10;;;11.30;99.90;;;;;;5525157;26;20037;-70
2024/04/16 11:33:56;;;;;;;8.27;1.80;;;10.90;99.90;;;;;;5492971;26;19997;-71
2024/04/16 11:36:23;;;;;;;7.10;1.73;;;10.80;99.90;;;;;;5494217;26;20013;-68
2024/04/16 11:38:50;;;;;;;10.20;1.80;;;11.00;99.90;;;;;;5494385;26;20001;-71
2024/04/16 11:41:18;;;;;;;7.43;1.42;;;11.20;99.90;;;;;;5492474;26;20085;-69
2024/04/16 11:43:46;;;;;;;12.82;2.65;;;11.30;99.90;;;;;;5525407;26;19997;-69
2024/04/16 11:46:13;;;;;;;5.78;2.13;;;11.40;99.90;;;;;;5443829;26;20128;-69
2024/04/16 11:48:39;;;;;;;7.47;1.45;;;11.60;99.90;;;;;;5425997;26;20009;-69
2024/04/16 11:51:06;;;;;;;10.10;2.20;;;12.10;99.90;;;;;;5493109;26;20509;-73
2024/04/16 11:53:32;;;;;;;8.18;2.05;;;12.40;99.90;;;;;;5502741;26;19994;-71
2024/04/16 11:55:59;;;;;;;11.20;1.63;;;12.50;99.90;;;;;;5444067;26;20002;-70
2024/04/16 11:58:24;;;;;;;8.52;1.85;;;13.00;99.90;;;;;;5460743;26;20083;-69
2024/04/16 12:00:52;;;;;;;9.90;1.83;;;13.10;99.90;;;;;;5443965;26;20044;-69
2024/04/16 12:03:17;;;;;;;7.22;1.70;;;13.50;99.90;;;;;;5477472;26;20020;-70
2024/04/16 12:05:44;;;;;;;8.80;2.08;;;14.00;99.90;;;;;;5466220;26;20439;-69
2024/04/16 12:08:09;;;;;;;11.00;2.60;;;15.10;99.90;;;;;;5471898;26;20012;-72
2024/04/16 12:10:35;;;;;;;10.55;1.95;;;14.20;99.90;;;;;;5470562;26;19997;-74
2024/04/16 12:13:01;;;;;;;6.25;1.17;;;13.40;99.90;;;;;;5475398;26;19997;-73
2024/04/16 12:15:27;;;;;;;6.10;1.00;;;12.70;99.90;;;;;;5441845;26;20026;-75
2024/04/16 12:17:52;;;;;;;7.47;0.75;;;12.00;99.90;;;;;;5463581;26;20450;-70
2024/04/16 12:20:18;;;;;;;2.28;1.10;;;11.60;99.90;;;;;;5493346;26;19998;-72
2024/04/16 12:22:44;;;;;;;6.85;1.00;;;11.40;99.90;;;;;;5492274;26;20008;-69
2024/04/16 12:25:10;;;;;;;6.47;1.00;;;11.30;99.90;;;;;;5524813;26;20072;-71
2024/04/16 12:27:35;;;;;;;3.08;0.80;;;11.50;99.90;;;;;;5492076;26;20012;-70
2024/04/16 12:30:01;;;;;;;4.50;0.70;;;11.80;99.90;;;;;;5461519;26;20346;-70
2024/04/16 12:32:27;;;;;;;5.60;1.35;;;12.20;99.90;;;;;;5524722;26;20012;-73
2024/04/16 12:34:52;;;;;;;8.63;1.25;;;12.40;99.90;;;;;;5497445;26;20013;-71
2024/04/16 12:37:18;;;;;;;4.63;0.73;;;12.40;99.90;;;;;;5528264;26;20016;-71
2024/04/16 12:39:44;;;;;;;6.13;0.98;;;12.40;99.90;;;;;;5495630;26;20016;-70
2024/04/16 12:42:09;;;;;;;7.25;1.17;;;12.40;99.90;;;;;;5529585;26;20001;-71
2024/04/16 12:44:35;;;;;;;4.88;1.48;;;12.30;99.90;;;;;;5459705;26;20291;-72